San Rafael, CA (94901)

10:30 AM PDT on June 29, 2017 (GMT -0700)
Picnic Valley | | Change Station

Elev 13 ft 37.97 °N, 122.53 °W | Updated 22 seconds ago

Partly Cloudy
Partly Cloudy
66.3 °F
Feels Like 66.3 °F
N
1.6
Wind Variable Wind from NE
Gusts 34.9 mph

Today
High -- | Low -- °F
--% Chance of Precip.
Yesterday
High -- | Low -- °F
Precip. -- in
Pressure 30.00 in
Visibility 4.0 miles
Clouds
Dew Point 42 °F
Humidity 40%
Rainfall 0.00 in
Snow Depth Not available.
5:50 AM 8:36 PM
Waxing Crescent, 37% visible
METAR KO69 291715Z AUTO 00000KT 4SM HZ 17/13 A3000 RMK A01
Pressure 30.00 in
Visibility 4.0 miles
Clouds
Dew Point 42 °F
Humidity 40%
Rainfall 0.00 in
Snow Depth Not available.
5:50 AM 8:36 PM
Waxing Crescent, 37% visible
METAR KO69 291715Z AUTO 00000KT 4SM HZ 17/13 A3000 RMK A01

Get Severe Weather Alerts

Thanks for signing up!

Be on the lookout for a verification email in your inbox.

You'll start receiving the daily forecast at 6 AM.

×

10-Day Weather Forecast

Almanac

Astronomy

Jun. 29, 2017 Rise Set
Actual Time
Civil Twilight
Nautical Twilight
Astronomical Twilight
Moon
Length of Visible Light
Length of Day
Tomorrow will be .
, % of the Moon is Illuminated

Today's Extremes

State Highs State Lows

Community

WunderPhotos

Category 6

Welcome to Category 6. This is the collective home for Weather Underground's featured writeups by Dr. Jeff Masters (right), Bob Henson (left), Chris Burt, and other regular contributors.

Nearby

Air Quality

  Air Quality AQ Index Pollutant
Not available.

Snow Depth

Station Depth Elevation

Earthquake Activity

City Distance Mag. Time & Date
Minimum magnitude displayed is 2.5.

Coastal Water Temperatures

Place Temperature

Stations

Nearby Weather Stations

Station Location Temp. Windchill Dew Point Humidity Wind Precip. Elev Updated Type
                   

Watches & Warnings

There are currently no watches in effect.